sensor_id;sensor_type;location;lat;lon;timestamp;P1;durP1;ratioP1;P2;durP2;ratioP2
68718;SDS011;55696;52.138;5.444;2022-12-11T00:02:09;66.03;;;17.93;;
68718;SDS011;55696;52.138;5.444;2022-12-11T00:04:35;61.08;;;17.98;;
68718;SDS011;55696;52.138;5.444;2022-12-11T00:07:02;58.75;;;18.50;;
68718;SDS011;55696;52.138;5.444;2022-12-11T00:09:29;58.90;;;18.05;;
68718;SDS011;55696;52.138;5.444;2022-12-11T00:11:56;68.43;;;19.08;;
68718;SDS011;55696;52.138;5.444;2022-12-11T00:14:23;67.68;;;17.50;;
68718;SDS011;55696;52.138;5.444;2022-12-11T00:16:49;61.20;;;17.85;;
68718;SDS011;55696;52.138;5.444;2022-12-11T00:19:16;62.97;;;19.43;;
68718;SDS011;55696;52.138;5.444;2022-12-11T00:21:43;61.50;;;17.73;;
68718;SDS011;55696;52.138;5.444;2022-12-11T00:24:10;57.58;;;16.88;;
68718;SDS011;55696;52.138;5.444;2022-12-11T00:26:37;55.08;;;18.02;;
68718;SDS011;55696;52.138;5.444;2022-12-11T00:29:04;65.17;;;18.83;;
68718;SDS011;55696;52.138;5.444;2022-12-11T00:31:33;51.65;;;17.52;;
68718;SDS011;55696;52.138;5.444;2022-12-11T00:34:00;61.67;;;18.23;;
68718;SDS011;55696;52.138;5.444;2022-12-11T00:36:27;60.63;;;17.50;;
68718;SDS011;55696;52.138;5.444;2022-12-11T00:38:54;56.07;;;17.27;;
68718;SDS011;55696;52.138;5.444;2022-12-11T00:41:21;51.35;;;16.98;;
68718;SDS011;55696;52.138;5.444;2022-12-11T00:43:48;57.30;;;18.15;;
68718;SDS011;55696;52.138;5.444;2022-12-11T00:46:15;61.03;;;17.77;;
68718;SDS011;55696;52.138;5.444;2022-12-11T00:48:42;63.58;;;19.13;;
68718;SDS011;55696;52.138;5.444;2022-12-11T00:51:09;53.38;;;16.65;;
68718;SDS011;55696;52.138;5.444;2022-12-11T00:53:36;54.58;;;17.42;;
68718;SDS011;55696;52.138;5.444;2022-12-11T00:56:10;55.83;;;18.67;;
68718;SDS011;55696;52.138;5.444;2022-12-11T00:58:39;52.30;;;16.95;;
68718;SDS011;55696;52.138;5.444;2022-12-11T01:01:07;62.47;;;19.17;;
68718;SDS011;55696;52.138;5.444;2022-12-11T01:03:36;59.58;;;19.60;;
68718;SDS011;55696;52.138;5.444;2022-12-11T01:06:04;52.78;;;18.30;;
68718;SDS011;55696;52.138;5.444;2022-12-11T01:08:31;55.80;;;17.20;;
68718;SDS011;55696;52.138;5.444;2022-12-11T01:11:05;60.83;;;17.52;;
68718;SDS011;55696;52.138;5.444;2022-12-11T01:13:35;57.93;;;18.23;;
68718;SDS011;55696;52.138;5.444;2022-12-11T01:16:09;63.83;;;19.90;;
68718;SDS011;55696;52.138;5.444;2022-12-11T01:18:41;64.75;;;19.25;;
68718;SDS011;55696;52.138;5.444;2022-12-11T01:21:09;68.10;;;19.23;;
68718;SDS011;55696;52.138;5.444;2022-12-11T01:23:37;64.63;;;19.30;;
68718;SDS011;55696;52.138;5.444;2022-12-11T01:26:08;59.60;;;18.02;;
68718;SDS011;55696;52.138;5.444;2022-12-11T01:28:36;57.45;;;19.13;;
68718;SDS011;55696;52.138;5.444;2022-12-11T01:31:07;58.28;;;18.15;;
68718;SDS011;55696;52.138;5.444;2022-12-11T01:33:39;62.63;;;19.17;;
68718;SDS011;55696;52.138;5.444;2022-12-11T01:36:10;58.05;;;17.02;;
68718;SDS011;55696;52.138;5.444;2022-12-11T01:38:39;71.82;;;19.52;;
68718;SDS011;55696;52.138;5.444;2022-12-11T01:41:06;65.47;;;20.23;;
68718;SDS011;55696;52.138;5.444;2022-12-11T01:43:34;68.13;;;18.60;;
68718;SDS011;55696;52.138;5.444;2022-12-11T01:46:20;72.80;;;20.27;;
68718;SDS011;55696;52.138;5.444;2022-12-11T01:48:47;69.93;;;19.85;;
68718;SDS011;55696;52.138;5.444;2022-12-11T01:51:14;67.50;;;21.33;;
68718;SDS011;55696;52.138;5.444;2022-12-11T01:53:44;65.15;;;19.27;;
68718;SDS011;55696;52.138;5.444;2022-12-11T01:56:15;74.35;;;20.17;;
68718;SDS011;55696;52.138;5.444;2022-12-11T01:58:44;70.28;;;19.83;;
68718;SDS011;55696;52.138;5.444;2022-12-11T02:01:17;65.70;;;18.90;;
68718;SDS011;55696;52.138;5.444;2022-12-11T02:03:50;52.78;;;17.08;;
68718;SDS011;55696;52.138;5.444;2022-12-11T02:06:33;68.35;;;20.95;;
68718;SDS011;55696;52.138;5.444;2022-12-11T02:09:00;66.72;;;19.80;;
68718;SDS011;55696;52.138;5.444;2022-12-11T02:11:50;68.63;;;20.80;;
68718;SDS011;55696;52.138;5.444;2022-12-11T02:14:32;69.88;;;20.02;;
68718;SDS011;55696;52.138;5.444;2022-12-11T02:17:06;58.50;;;16.70;;
68718;SDS011;55696;52.138;5.444;2022-12-11T02:19:51;61.70;;;19.83;;
68718;SDS011;55696;52.138;5.444;2022-12-11T02:25:19;65.85;;;19.50;;
68718;SDS011;55696;52.138;5.444;2022-12-11T02:30:56;59.30;;;17.17;;
68718;SDS011;55696;52.138;5.444;2022-12-11T02:33:36;60.93;;;19.70;;
68718;SDS011;55696;52.138;5.444;2022-12-11T02:36:08;58.00;;;18.23;;
68718;SDS011;55696;52.138;5.444;2022-12-11T02:38:36;62.33;;;19.60;;
68718;SDS011;55696;52.138;5.444;2022-12-11T02:41:06;59.47;;;19.63;;
68718;SDS011;55696;52.138;5.444;2022-12-11T02:43:36;52.33;;;18.53;;
68718;SDS011;55696;52.138;5.444;2022-12-11T02:46:04;58.10;;;19.40;;
68718;SDS011;55696;52.138;5.444;2022-12-11T02:48:33;66.05;;;20.23;;
68718;SDS011;55696;52.138;5.444;2022-12-11T02:51:02;54.05;;;18.75;;
68718;SDS011;55696;52.138;5.444;2022-12-11T02:53:30;71.50;;;20.67;;
68718;SDS011;55696;52.138;5.444;2022-12-11T02:56:05;62.63;;;19.20;;
68718;SDS011;55696;52.138;5.444;2022-12-11T02:59:03;56.22;;;18.95;;
68718;SDS011;55696;52.138;5.444;2022-12-11T03:01:38;58.22;;;18.73;;
68718;SDS011;55696;52.138;5.444;2022-12-11T03:04:05;59.57;;;19.80;;
68718;SDS011;55696;52.138;5.444;2022-12-11T03:06:33;60.83;;;20.38;;
68718;SDS011;55696;52.138;5.444;2022-12-11T03:09:03;54.70;;;19.02;;
68718;SDS011;55696;52.138;5.444;2022-12-11T03:11:30;56.20;;;18.08;;
68718;SDS011;55696;52.138;5.444;2022-12-11T03:13:57;57.30;;;20.57;;
68718;SDS011;55696;52.138;5.444;2022-12-11T03:19:14;67.97;;;20.27;;
68718;SDS011;55696;52.138;5.444;2022-12-11T03:24:27;59.27;;;18.57;;
68718;SDS011;55696;52.138;5.444;2022-12-11T03:27:05;54.55;;;19.02;;
68718;SDS011;55696;52.138;5.444;2022-12-11T03:29:46;53.60;;;18.77;;
68718;SDS011;55696;52.138;5.444;2022-12-11T03:32:23;55.28;;;19.20;;
68718;SDS011;55696;52.138;5.444;2022-12-11T03:34:56;55.90;;;20.50;;
68718;SDS011;55696;52.138;5.444;2022-12-11T03:37:34;54.78;;;18.73;;
68718;SDS011;55696;52.138;5.444;2022-12-11T03:40:11;51.53;;;18.30;;
68718;SDS011;55696;52.138;5.444;2022-12-11T03:42:41;43.55;;;17.02;;
68718;SDS011;55696;52.138;5.444;2022-12-11T03:45:10;49.60;;;19.07;;
68718;SDS011;55696;52.138;5.444;2022-12-11T03:47:38;49.83;;;17.85;;
68718;SDS011;55696;52.138;5.444;2022-12-11T03:50:07;48.30;;;17.52;;
68718;SDS011;55696;52.138;5.444;2022-12-11T03:52:37;47.30;;;18.25;;
68718;SDS011;55696;52.138;5.444;2022-12-11T03:55:12;46.83;;;18.57;;
68718;SDS011;55696;52.138;5.444;2022-12-11T03:57:41;51.33;;;18.52;;
68718;SDS011;55696;52.138;5.444;2022-12-11T04:00:10;50.28;;;18.83;;
68718;SDS011;55696;52.138;5.444;2022-12-11T04:02:41;45.08;;;17.20;;
68718;SDS011;55696;52.138;5.444;2022-12-11T04:05:09;49.37;;;18.63;;
68718;SDS011;55696;52.138;5.444;2022-12-11T04:07:37;40.15;;;16.90;;
68718;SDS011;55696;52.138;5.444;2022-12-11T04:10:04;42.38;;;17.00;;
68718;SDS011;55696;52.138;5.444;2022-12-11T04:12:31;42.15;;;17.15;;
68718;SDS011;55696;52.138;5.444;2022-12-11T04:14:57;40.33;;;17.07;;
68718;SDS011;55696;52.138;5.444;2022-12-11T04:17:34;41.70;;;16.73;;
68718;SDS011;55696;52.138;5.444;2022-12-11T04:20:20;41.15;;;17.65;;
68718;SDS011;55696;52.138;5.444;2022-12-11T04:23:08;43.33;;;17.33;;
68718;SDS011;55696;52.138;5.444;2022-12-11T04:26:07;42.93;;;16.97;;
68718;SDS011;55696;52.138;5.444;2022-12-11T04:28:38;43.58;;;17.60;;
68718;SDS011;55696;52.138;5.444;2022-12-11T04:31:09;39.63;;;15.93;;
68718;SDS011;55696;52.138;5.444;2022-12-11T04:33:40;39.85;;;17.50;;
68718;SDS011;55696;52.138;5.444;2022-12-11T04:36:07;37.43;;;16.80;;
68718;SDS011;55696;52.138;5.444;2022-12-11T04:38:34;33.65;;;14.50;;
68718;SDS011;55696;52.138;5.444;2022-12-11T04:41:03;36.95;;;16.17;;
68718;SDS011;55696;52.138;5.444;2022-12-11T04:43:35;33.90;;;15.07;;
68718;SDS011;55696;52.138;5.444;2022-12-11T04:46:06;39.87;;;16.57;;
68718;SDS011;55696;52.138;5.444;2022-12-11T04:48:38;33.45;;;15.02;;
68718;SDS011;55696;52.138;5.444;2022-12-11T04:51:06;33.28;;;15.13;;
68718;SDS011;55696;52.138;5.444;2022-12-11T04:53:33;34.22;;;14.60;;
68718;SDS011;55696;52.138;5.444;2022-12-11T04:56:00;34.47;;;16.00;;
68718;SDS011;55696;52.138;5.444;2022-12-11T04:58:30;36.03;;;15.68;;
68718;SDS011;55696;52.138;5.444;2022-12-11T05:00:57;31.30;;;15.30;;
68718;SDS011;55696;52.138;5.444;2022-12-11T05:03:24;35.00;;;14.63;;
68718;SDS011;55696;52.138;5.444;2022-12-11T05:05:51;35.60;;;15.10;;
68718;SDS011;55696;52.138;5.444;2022-12-11T05:08:19;29.95;;;13.48;;
68718;SDS011;55696;52.138;5.444;2022-12-11T05:13:23;32.88;;;14.95;;
68718;SDS011;55696;52.138;5.444;2022-12-11T05:15:50;30.80;;;14.30;;
68718;SDS011;55696;52.138;5.444;2022-12-11T05:18:17;33.85;;;14.15;;
68718;SDS011;55696;52.138;5.444;2022-12-11T05:20:43;29.02;;;13.88;;
68718;SDS011;55696;52.138;5.444;2022-12-11T05:23:10;32.17;;;14.27;;
68718;SDS011;55696;52.138;5.444;2022-12-11T05:25:37;34.87;;;14.87;;
68718;SDS011;55696;52.138;5.444;2022-12-11T05:28:04;32.55;;;14.50;;
68718;SDS011;55696;52.138;5.444;2022-12-11T05:30:31;30.98;;;14.60;;
68718;SDS011;55696;52.138;5.444;2022-12-11T05:32:58;30.08;;;14.63;;
68718;SDS011;55696;52.138;5.444;2022-12-11T05:35:24;30.57;;;14.47;;
68718;SDS011;55696;52.138;5.444;2022-12-11T05:37:51;29.77;;;12.40;;
68718;SDS011;55696;52.138;5.444;2022-12-11T05:40:18;31.38;;;14.50;;
68718;SDS011;55696;52.138;5.444;2022-12-11T05:42:45;30.85;;;14.93;;
68718;SDS011;55696;52.138;5.444;2022-12-11T05:45:12;28.90;;;14.07;;
68718;SDS011;55696;52.138;5.444;2022-12-11T05:47:39;31.20;;;12.98;;
68718;SDS011;55696;52.138;5.444;2022-12-11T05:50:05;30.52;;;14.10;;
68718;SDS011;55696;52.138;5.444;2022-12-11T05:52:33;32.80;;;14.60;;
68718;SDS011;55696;52.138;5.444;2022-12-11T05:54:59;28.13;;;13.67;;
68718;SDS011;55696;52.138;5.444;2022-12-11T05:57:26;32.03;;;13.57;;
68718;SDS011;55696;52.138;5.444;2022-12-11T05:59:53;33.55;;;13.50;;
68718;SDS011;55696;52.138;5.444;2022-12-11T06:02:20;28.40;;;13.60;;
68718;SDS011;55696;52.138;5.444;2022-12-11T06:04:47;28.67;;;13.43;;
68718;SDS011;55696;52.138;5.444;2022-12-11T06:07:14;29.05;;;13.32;;
68718;SDS011;55696;52.138;5.444;2022-12-11T06:09:40;29.52;;;12.65;;
68718;SDS011;55696;52.138;5.444;2022-12-11T06:12:07;27.65;;;11.95;;
68718;SDS011;55696;52.138;5.444;2022-12-11T06:14:34;28.97;;;13.57;;
68718;SDS011;55696;52.138;5.444;2022-12-11T06:17:01;29.10;;;13.07;;
68718;SDS011;55696;52.138;5.444;2022-12-11T06:19:27;28.65;;;13.45;;
68718;SDS011;55696;52.138;5.444;2022-12-11T06:22:01;33.85;;;14.85;;
68718;SDS011;55696;52.138;5.444;2022-12-11T06:24:28;33.07;;;13.83;;
68718;SDS011;55696;52.138;5.444;2022-12-11T06:26:55;29.15;;;13.38;;
68718;SDS011;55696;52.138;5.444;2022-12-11T06:29:22;32.10;;;14.70;;
68718;SDS011;55696;52.138;5.444;2022-12-11T06:31:49;38.92;;;15.45;;
68718;SDS011;55696;52.138;5.444;2022-12-11T06:34:15;28.67;;;13.73;;
68718;SDS011;55696;52.138;5.444;2022-12-11T06:36:42;30.10;;;14.00;;
68718;SDS011;55696;52.138;5.444;2022-12-11T06:39:09;33.00;;;14.27;;
68718;SDS011;55696;52.138;5.444;2022-12-11T06:41:37;35.85;;;14.35;;
68718;SDS011;55696;52.138;5.444;2022-12-11T06:44:04;32.57;;;14.20;;
68718;SDS011;55696;52.138;5.444;2022-12-11T06:46:30;35.13;;;15.00;;
68718;SDS011;55696;52.138;5.444;2022-12-11T06:48:57;32.50;;;14.18;;
68718;SDS011;55696;52.138;5.444;2022-12-11T06:51:24;34.10;;;14.48;;
68718;SDS011;55696;52.138;5.444;2022-12-11T06:53:51;32.77;;;14.83;;
68718;SDS011;55696;52.138;5.444;2022-12-11T06:56:19;35.63;;;15.27;;
68718;SDS011;55696;52.138;5.444;2022-12-11T06:58:47;37.70;;;15.73;;
68718;SDS011;55696;52.138;5.444;2022-12-11T07:01:24;34.72;;;15.13;;
68718;SDS011;55696;52.138;5.444;2022-12-11T07:03:53;31.27;;;13.87;;
68718;SDS011;55696;52.138;5.444;2022-12-11T07:06:21;37.70;;;16.33;;
68718;SDS011;55696;52.138;5.444;2022-12-11T07:08:49;34.45;;;15.95;;
68718;SDS011;55696;52.138;5.444;2022-12-11T07:11:16;38.45;;;15.45;;
68718;SDS011;55696;52.138;5.444;2022-12-11T07:13:44;35.93;;;16.63;;
68718;SDS011;55696;52.138;5.444;2022-12-11T07:16:12;38.53;;;15.95;;
68718;SDS011;55696;52.138;5.444;2022-12-11T07:18:42;38.20;;;16.10;;
68718;SDS011;55696;52.138;5.444;2022-12-11T07:21:12;38.55;;;16.65;;
68718;SDS011;55696;52.138;5.444;2022-12-11T07:23:40;37.20;;;16.50;;
68718;SDS011;55696;52.138;5.444;2022-12-11T07:26:08;36.60;;;16.50;;
68718;SDS011;55696;52.138;5.444;2022-12-11T07:28:39;37.85;;;16.65;;
68718;SDS011;55696;52.138;5.444;2022-12-11T07:31:07;39.25;;;16.80;;
68718;SDS011;55696;52.138;5.444;2022-12-11T07:33:35;41.60;;;16.75;;
68718;SDS011;55696;52.138;5.444;2022-12-11T07:36:03;39.70;;;16.17;;
68718;SDS011;55696;52.138;5.444;2022-12-11T07:38:31;37.88;;;16.13;;
68718;SDS011;55696;52.138;5.444;2022-12-11T07:40:59;39.55;;;16.90;;
68718;SDS011;55696;52.138;5.444;2022-12-11T07:43:26;35.65;;;14.98;;
68718;SDS011;55696;52.138;5.444;2022-12-11T07:45:53;36.13;;;14.75;;
68718;SDS011;55696;52.138;5.444;2022-12-11T07:48:20;34.83;;;15.50;;
68718;SDS011;55696;52.138;5.444;2022-12-11T07:50:47;36.47;;;15.60;;
68718;SDS011;55696;52.138;5.444;2022-12-11T07:53:13;36.65;;;16.85;;
68718;SDS011;55696;52.138;5.444;2022-12-11T07:55:40;34.65;;;14.65;;
68718;SDS011;55696;52.138;5.444;2022-12-11T07:58:07;32.05;;;15.00;;
68718;SDS011;55696;52.138;5.444;2022-12-11T08:00:35;36.83;;;15.32;;
68718;SDS011;55696;52.138;5.444;2022-12-11T08:03:02;31.30;;;15.60;;
68718;SDS011;55696;52.138;5.444;2022-12-11T08:05:29;33.90;;;15.05;;
68718;SDS011;55696;52.138;5.444;2022-12-11T08:07:56;32.03;;;14.63;;
68718;SDS011;55696;52.138;5.444;2022-12-11T08:10:23;30.63;;;15.27;;
68718;SDS011;55696;52.138;5.444;2022-12-11T08:12:49;33.10;;;15.37;;
68718;SDS011;55696;52.138;5.444;2022-12-11T08:15:16;33.67;;;14.88;;
68718;SDS011;55696;52.138;5.444;2022-12-11T08:17:43;33.38;;;15.43;;
68718;SDS011;55696;52.138;5.444;2022-12-11T08:20:10;32.65;;;15.23;;
68718;SDS011;55696;52.138;5.444;2022-12-11T08:22:36;34.30;;;16.08;;
68718;SDS011;55696;52.138;5.444;2022-12-11T08:25:03;35.03;;;15.35;;
68718;SDS011;55696;52.138;5.444;2022-12-11T08:27:30;32.90;;;15.82;;
68718;SDS011;55696;52.138;5.444;2022-12-11T08:29:57;34.47;;;16.20;;
68718;SDS011;55696;52.138;5.444;2022-12-11T08:32:24;34.63;;;16.20;;
68718;SDS011;55696;52.138;5.444;2022-12-11T08:34:51;37.35;;;17.40;;
68718;SDS011;55696;52.138;5.444;2022-12-11T08:37:17;33.78;;;16.00;;
68718;SDS011;55696;52.138;5.444;2022-12-11T08:39:44;30.17;;;15.27;;
68718;SDS011;55696;52.138;5.444;2022-12-11T08:42:12;37.83;;;16.73;;
68718;SDS011;55696;52.138;5.444;2022-12-11T08:44:40;33.55;;;16.10;;
68718;SDS011;55696;52.138;5.444;2022-12-11T08:47:06;35.90;;;15.90;;
68718;SDS011;55696;52.138;5.444;2022-12-11T08:49:35;30.60;;;14.15;;
68718;SDS011;55696;52.138;5.444;2022-12-11T08:52:04;31.48;;;14.68;;
68718;SDS011;55696;52.138;5.444;2022-12-11T08:54:31;32.83;;;15.70;;
68718;SDS011;55696;52.138;5.444;2022-12-11T08:56:58;27.08;;;12.95;;
68718;SDS011;55696;52.138;5.444;2022-12-11T08:59:25;32.70;;;13.93;;
68718;SDS011;55696;52.138;5.444;2022-12-11T09:01:53;25.58;;;12.60;;
68718;SDS011;55696;52.138;5.444;2022-12-11T09:04:21;26.80;;;11.67;;
68718;SDS011;55696;52.138;5.444;2022-12-11T09:06:48;28.90;;;12.27;;
68718;SDS011;55696;52.138;5.444;2022-12-11T09:09:15;27.75;;;14.32;;
68718;SDS011;55696;52.138;5.444;2022-12-11T09:11:43;25.08;;;12.60;;
68718;SDS011;55696;52.138;5.444;2022-12-11T09:14:10;32.00;;;13.40;;
68718;SDS011;55696;52.138;5.444;2022-12-11T09:16:38;26.80;;;13.40;;
68718;SDS011;55696;52.138;5.444;2022-12-11T09:19:06;28.55;;;13.15;;
68718;SDS011;55696;52.138;5.444;2022-12-11T09:21:36;31.27;;;14.07;;
68718;SDS011;55696;52.138;5.444;2022-12-11T09:24:03;35.30;;;14.03;;
68718;SDS011;55696;52.138;5.444;2022-12-11T09:26:30;30.73;;;14.43;;
68718;SDS011;55696;52.138;5.444;2022-12-11T09:28:57;27.25;;;12.27;;
68718;SDS011;55696;52.138;5.444;2022-12-11T09:31:25;31.75;;;12.88;;
68718;SDS011;55696;52.138;5.444;2022-12-11T09:33:54;29.58;;;14.57;;
68718;SDS011;55696;52.138;5.444;2022-12-11T09:36:23;31.00;;;14.00;;
68718;SDS011;55696;52.138;5.444;2022-12-11T09:38:50;31.30;;;13.50;;
68718;SDS011;55696;52.138;5.444;2022-12-11T09:43:48;32.17;;;14.17;;
68718;SDS011;55696;52.138;5.444;2022-12-11T09:46:31;30.88;;;13.82;;
68718;SDS011;55696;52.138;5.444;2022-12-11T09:49:01;29.85;;;13.13;;
68718;SDS011;55696;52.138;5.444;2022-12-11T09:51:41;27.63;;;13.85;;
68718;SDS011;55696;52.138;5.444;2022-12-11T09:54:11;33.23;;;14.67;;
68718;SDS011;55696;52.138;5.444;2022-12-11T09:56:49;28.50;;;13.10;;
68718;SDS011;55696;52.138;5.444;2022-12-11T09:59:35;29.05;;;13.65;;
68718;SDS011;55696;52.138;5.444;2022-12-11T10:10:40;29.45;;;13.63;;
68718;SDS011;55696;52.138;5.444;2022-12-11T10:18:39;34.60;;;15.43;;
68718;SDS011;55696;52.138;5.444;2022-12-11T10:21:07;33.03;;;15.38;;
68718;SDS011;55696;52.138;5.444;2022-12-11T10:23:43;28.08;;;13.68;;
68718;SDS011;55696;52.138;5.444;2022-12-11T10:26:17;33.30;;;15.20;;
68718;SDS011;55696;52.138;5.444;2022-12-11T10:28:46;32.63;;;14.25;;
68718;SDS011;55696;52.138;5.444;2022-12-11T10:31:17;28.23;;;13.70;;
68718;SDS011;55696;52.138;5.444;2022-12-11T10:36:29;30.00;;;14.35;;
68718;SDS011;55696;52.138;5.444;2022-12-11T10:38:59;27.53;;;13.63;;
68718;SDS011;55696;52.138;5.444;2022-12-11T10:41:35;26.15;;;13.55;;
68718;SDS011;55696;52.138;5.444;2022-12-11T10:44:17;29.25;;;14.15;;
68718;SDS011;55696;52.138;5.444;2022-12-11T10:47:13;28.55;;;13.57;;
68718;SDS011;55696;52.138;5.444;2022-12-11T10:49:51;25.97;;;13.17;;
68718;SDS011;55696;52.138;5.444;2022-12-11T10:52:24;24.75;;;12.38;;
68718;SDS011;55696;52.138;5.444;2022-12-11T10:54:57;27.80;;;12.45;;
68718;SDS011;55696;52.138;5.444;2022-12-11T10:57:30;25.95;;;12.50;;
68718;SDS011;55696;52.138;5.444;2022-12-11T11:00:00;28.17;;;13.48;;
68718;SDS011;55696;52.138;5.444;2022-12-11T11:02:38;26.93;;;12.30;;
68718;SDS011;55696;52.138;5.444;2022-12-11T11:05:24;27.95;;;13.07;;
68718;SDS011;55696;52.138;5.444;2022-12-11T11:10:48;25.70;;;11.57;;
68718;SDS011;55696;52.138;5.444;2022-12-11T11:13:16;24.63;;;11.97;;
68718;SDS011;55696;52.138;5.444;2022-12-11T11:15:47;26.50;;;12.05;;
68718;SDS011;55696;52.138;5.444;2022-12-11T11:18:32;27.85;;;12.82;;
68718;SDS011;55696;52.138;5.444;2022-12-11T11:21:00;26.85;;;12.55;;
68718;SDS011;55696;52.138;5.444;2022-12-11T11:23:28;25.05;;;11.70;;
68718;SDS011;55696;52.138;5.444;2022-12-11T11:25:56;22.23;;;11.50;;
68718;SDS011;55696;52.138;5.444;2022-12-11T11:28:29;28.42;;;11.82;;
68718;SDS011;55696;52.138;5.444;2022-12-11T11:31:13;26.65;;;11.40;;
68718;SDS011;55696;52.138;5.444;2022-12-11T11:33:53;24.15;;;11.18;;
68718;SDS011;55696;52.138;5.444;2022-12-11T11:36:24;28.27;;;11.93;;
68718;SDS011;55696;52.138;5.444;2022-12-11T11:39:01;28.63;;;12.43;;
68718;SDS011;55696;52.138;5.444;2022-12-11T11:44:15;27.15;;;11.95;;
68718;SDS011;55696;52.138;5.444;2022-12-11T11:46:59;27.70;;;11.95;;
68718;SDS011;55696;52.138;5.444;2022-12-11T11:49:43;22.80;;;11.13;;
68718;SDS011;55696;52.138;5.444;2022-12-11T11:55:30;23.17;;;11.77;;
68718;SDS011;55696;52.138;5.444;2022-12-11T11:58:21;24.77;;;11.25;;
68718;SDS011;55696;52.138;5.444;2022-12-11T12:00:53;24.35;;;11.25;;
68718;SDS011;55696;52.138;5.444;2022-12-11T12:03:20;22.90;;;11.67;;
68718;SDS011;55696;52.138;5.444;2022-12-11T12:17:19;23.93;;;10.63;;
68718;SDS011;55696;52.138;5.444;2022-12-11T12:23:03;26.17;;;11.05;;
68718;SDS011;55696;52.138;5.444;2022-12-11T12:25:59;21.65;;;10.30;;
68718;SDS011;55696;52.138;5.444;2022-12-11T12:39:52;30.80;;;10.57;;
68718;SDS011;55696;52.138;5.444;2022-12-11T12:48:28;23.73;;;11.35;;
68718;SDS011;55696;52.138;5.444;2022-12-11T12:50:56;22.23;;;10.88;;
68718;SDS011;55696;52.138;5.444;2022-12-11T12:53:23;29.02;;;10.73;;
68718;SDS011;55696;52.138;5.444;2022-12-11T12:55:53;22.55;;;12.70;;
68718;SDS011;55696;52.138;5.444;2022-12-11T12:58:43;26.45;;;11.65;;
68718;SDS011;55696;52.138;5.444;2022-12-11T13:01:20;24.05;;;10.68;;
68718;SDS011;55696;52.138;5.444;2022-12-11T13:03:58;25.35;;;10.68;;
68718;SDS011;55696;52.138;5.444;2022-12-11T13:06:38;24.47;;;10.47;;
68718;SDS011;55696;52.138;5.444;2022-12-11T13:11:52;25.92;;;10.95;;
68718;SDS011;55696;52.138;5.444;2022-12-11T13:17:04;28.10;;;12.57;;
68718;SDS011;55696;52.138;5.444;2022-12-11T13:19:46;25.83;;;11.63;;
68718;SDS011;55696;52.138;5.444;2022-12-11T13:24:47;26.77;;;11.88;;
68718;SDS011;55696;52.138;5.444;2022-12-11T13:27:26;26.55;;;12.45;;
68718;SDS011;55696;52.138;5.444;2022-12-11T13:30:04;32.63;;;13.30;;
68718;SDS011;55696;52.138;5.444;2022-12-11T13:32:41;31.50;;;12.33;;
68718;SDS011;55696;52.138;5.444;2022-12-11T13:35:24;29.05;;;12.95;;
68718;SDS011;55696;52.138;5.444;2022-12-11T13:37:51;27.67;;;13.00;;
68718;SDS011;55696;52.138;5.444;2022-12-11T13:40:24;30.92;;;13.15;;
68718;SDS011;55696;52.138;5.444;2022-12-11T13:42:54;26.90;;;12.50;;
68718;SDS011;55696;52.138;5.444;2022-12-11T13:48:03;30.10;;;13.63;;
68718;SDS011;55696;52.138;5.444;2022-12-11T13:50:44;28.60;;;14.15;;
68718;SDS011;55696;52.138;5.444;2022-12-11T13:53:12;29.27;;;13.57;;
68718;SDS011;55696;52.138;5.444;2022-12-11T13:55:41;32.03;;;13.60;;
68718;SDS011;55696;52.138;5.444;2022-12-11T13:58:15;36.70;;;15.15;;
68718;SDS011;55696;52.138;5.444;2022-12-11T14:03:49;33.35;;;15.02;;
68718;SDS011;55696;52.138;5.444;2022-12-11T14:06:18;32.10;;;15.07;;
68718;SDS011;55696;52.138;5.444;2022-12-11T14:08:47;34.25;;;13.80;;
68718;SDS011;55696;52.138;5.444;2022-12-11T14:11:20;35.42;;;16.05;;
68718;SDS011;55696;52.138;5.444;2022-12-11T14:13:54;32.38;;;14.85;;
68718;SDS011;55696;52.138;5.444;2022-12-11T14:16:23;36.60;;;17.15;;
68718;SDS011;55696;52.138;5.444;2022-12-11T14:18:52;32.03;;;15.02;;
68718;SDS011;55696;52.138;5.444;2022-12-11T14:21:22;34.05;;;16.55;;
68718;SDS011;55696;52.138;5.444;2022-12-11T14:23:52;32.58;;;15.32;;
68718;SDS011;55696;52.138;5.444;2022-12-11T14:26:28;40.25;;;15.75;;
68718;SDS011;55696;52.138;5.444;2022-12-11T14:28:56;35.77;;;16.47;;
68718;SDS011;55696;52.138;5.444;2022-12-11T14:34:10;35.08;;;15.07;;
68718;SDS011;55696;52.138;5.444;2022-12-11T14:36:49;30.75;;;13.85;;
68718;SDS011;55696;52.138;5.444;2022-12-11T14:39:18;35.17;;;15.00;;
68718;SDS011;55696;52.138;5.444;2022-12-11T14:42:03;35.92;;;14.60;;
68718;SDS011;55696;52.138;5.444;2022-12-11T14:47:29;36.50;;;15.80;;
68718;SDS011;55696;52.138;5.444;2022-12-11T14:50:03;37.90;;;17.23;;
68718;SDS011;55696;52.138;5.444;2022-12-11T14:52:50;32.45;;;15.27;;
68718;SDS011;55696;52.138;5.444;2022-12-11T14:55:21;34.53;;;14.82;;
68718;SDS011;55696;52.138;5.444;2022-12-11T14:57:53;33.83;;;14.35;;
68718;SDS011;55696;52.138;5.444;2022-12-11T15:02:56;34.00;;;14.00;;
68718;SDS011;55696;52.138;5.444;2022-12-11T15:05:23;32.50;;;14.48;;
68718;SDS011;55696;52.138;5.444;2022-12-11T15:10:39;33.85;;;14.40;;
68718;SDS011;55696;52.138;5.444;2022-12-11T15:13:22;33.20;;;15.07;;
68718;SDS011;55696;52.138;5.444;2022-12-11T15:15:50;30.95;;;14.73;;
68718;SDS011;55696;52.138;5.444;2022-12-11T15:18:19;36.97;;;15.70;;
68718;SDS011;55696;52.138;5.444;2022-12-11T15:20:50;40.42;;;16.00;;
68718;SDS011;55696;52.138;5.444;2022-12-11T15:23:20;32.72;;;14.93;;
68718;SDS011;55696;52.138;5.444;2022-12-11T15:25:51;34.07;;;14.87;;
68718;SDS011;55696;52.138;5.444;2022-12-11T15:28:40;38.03;;;16.52;;
68718;SDS011;55696;52.138;5.444;2022-12-11T15:31:23;32.22;;;15.90;;
68718;SDS011;55696;52.138;5.444;2022-12-11T15:33:52;35.53;;;15.48;;
68718;SDS011;55696;52.138;5.444;2022-12-11T15:36:24;40.03;;;15.47;;
68718;SDS011;55696;52.138;5.444;2022-12-11T15:39:03;40.28;;;18.65;;
68718;SDS011;55696;52.138;5.444;2022-12-11T15:41:34;41.40;;;17.92;;
68718;SDS011;55696;52.138;5.444;2022-12-11T15:44:02;38.40;;;17.92;;
68718;SDS011;55696;52.138;5.444;2022-12-11T15:46:33;41.75;;;17.33;;
68718;SDS011;55696;52.138;5.444;2022-12-11T15:49:04;35.97;;;17.08;;
68718;SDS011;55696;52.138;5.444;2022-12-11T15:51:38;37.20;;;15.82;;
68718;SDS011;55696;52.138;5.444;2022-12-11T15:54:08;33.78;;;15.50;;
68718;SDS011;55696;52.138;5.444;2022-12-11T15:56:35;37.55;;;18.02;;
68718;SDS011;55696;52.138;5.444;2022-12-11T15:59:02;38.67;;;17.07;;
68718;SDS011;55696;52.138;5.444;2022-12-11T16:01:31;34.75;;;16.73;;
68718;SDS011;55696;52.138;5.444;2022-12-11T16:03:59;37.50;;;16.90;;
68718;SDS011;55696;52.138;5.444;2022-12-11T16:06:30;34.47;;;16.05;;
68718;SDS011;55696;52.138;5.444;2022-12-11T16:08:58;30.90;;;14.33;;
68718;SDS011;55696;52.138;5.444;2022-12-11T16:11:25;35.78;;;15.57;;
68718;SDS011;55696;52.138;5.444;2022-12-11T16:13:52;35.25;;;14.57;;
68718;SDS011;55696;52.138;5.444;2022-12-11T16:16:18;31.42;;;15.57;;
68718;SDS011;55696;52.138;5.444;2022-12-11T16:18:45;31.13;;;14.05;;
68718;SDS011;55696;52.138;5.444;2022-12-11T16:21:12;29.03;;;14.13;;